Time;durP1;ratioP1;P1;durP2;ratioP2;P2;SDS_P1;SDS_P2;PMS_P1;PMS_P2;Temp;Humidity;BMP_temperature;BMP_pressure;BME280_temperature;BME280_humidity;BME280_pressure;Samples;Min_cycle;Max_cycle;Signal;HPM_P1;HPM_P2
2021/08/23 00:01:02;;;;;;;241.20;228.10;;;20.70;99.90;;;;;;5073629;28;20205;-79
2021/08/23 00:11:41;;;;;;;224.60;212.38;;;20.70;99.90;;;;;;5078626;28;20214;-79
2021/08/23 00:19:37;;;;;;;241.57;228.57;;;20.70;99.90;;;;;;5072683;28;20214;-79
2021/08/23 00:27:36;;;;;;;238.60;225.30;;;20.60;99.90;;;;;;5072955;28;20228;-79
2021/08/23 00:32:48;;;;;;;262.27;247.50;;;20.50;99.90;;;;;;5072677;28;20217;-79
2021/08/23 00:35:15;;;;;;;267.58;252.65;;;20.50;99.90;;;;;;5075856;28;20207;-78
2021/08/23 00:37:42;;;;;;;235.02;222.10;;;20.40;99.90;;;;;;5071393;28;20207;-78
2021/08/23 00:40:11;;;;;;;237.93;224.80;;;20.40;99.90;;;;;;5079182;28;20229;-79
2021/08/23 00:42:39;;;;;;;252.68;238.80;;;20.50;99.90;;;;;;5072688;28;20227;-78
2021/08/23 00:45:09;;;;;;;241.88;228.68;;;20.40;99.90;;;;;;5073702;28;20198;-78
2021/08/23 00:47:36;;;;;;;243.00;229.40;;;20.40;99.90;;;;;;5072676;28;20235;-78
2021/08/23 00:50:04;;;;;;;235.15;222.18;;;20.40;99.90;;;;;;5079518;28;20224;-78
2021/08/23 00:52:31;;;;;;;269.40;253.80;;;20.40;99.90;;;;;;5071319;28;20197;-78
2021/08/23 00:54:58;;;;;;;244.93;231.43;;;20.40;99.90;;;;;;5070716;28;20235;-78
2021/08/23 00:57:26;;;;;;;251.77;237.88;;;20.40;99.90;;;;;;5074973;28;20222;-78
2021/08/23 00:59:54;;;;;;;273.42;258.20;;;20.30;99.90;;;;;;5070257;28;20236;-78
2021/08/23 01:02:28;;;;;;;249.25;235.65;;;20.30;99.90;;;;;;5074807;28;20198;-78
2021/08/23 01:05:02;;;;;;;268.80;253.77;;;20.20;99.90;;;;;;5071531;28;20215;-78
2021/08/23 01:07:36;;;;;;;290.60;273.73;;;20.20;99.90;;;;;;5086722;28;20285;-78
2021/08/23 01:10:08;;;;;;;266.10;251.10;;;20.20;99.90;;;;;;5076356;28;20211;-78
2021/08/23 01:12:36;;;;;;;271.42;256.10;;;20.20;99.90;;;;;;5070087;28;20216;-78
2021/08/23 01:15:19;;;;;;;305.30;287.42;;;20.20;99.90;;;;;;5071804;28;20230;-79
2021/08/23 01:20:27;;;;;;;269.58;254.68;;;20.20;99.90;;;;;;5069631;28;20328;-79
2021/08/23 01:22:58;;;;;;;274.23;258.88;;;20.20;99.90;;;;;;5071054;28;20257;-78
2021/08/23 01:25:28;;;;;;;291.60;274.83;;;20.10;99.90;;;;;;5070335;28;20732;-78
2021/08/23 01:28:07;;;;;;;263.65;248.75;;;20.10;99.90;;;;;;5074687;28;20228;-79
2021/08/23 01:30:49;;;;;;;275.65;260.05;;;20.10;99.90;;;;;;5077914;28;20203;-79
2021/08/23 01:33:18;;;;;;;296.33;279.13;;;20.10;99.90;;;;;;5074412;28;20199;-80
2021/08/23 01:35:45;;;;;;;292.92;276.20;;;20.00;99.90;;;;;;5073953;28;20513;-79
2021/08/23 01:38:13;;;;;;;322.92;303.90;;;20.00;99.90;;;;;;5075259;28;20277;-79
2021/08/23 01:46:09;;;;;;;313.17;294.50;;;19.90;99.90;;;;;;5078522;28;20208;-79
2021/08/23 01:48:52;;;;;;;303.48;285.92;;;19.90;99.90;;;;;;5076638;28;20224;-79
2021/08/23 01:59:23;;;;;;;335.05;314.45;;;19.80;99.90;;;;;;5075187;28;20209;-79
2021/08/23 02:01:49;;;;;;;332.30;312.20;;;19.70;99.90;;;;;;5079010;28;20197;-80
2021/08/23 02:04:18;;;;;;;312.70;294.45;;;19.70;99.90;;;;;;5076381;28;20237;-79
2021/08/23 02:09:34;;;;;;;336.48;316.33;;;19.60;99.90;;;;;;5070304;28;20239;-79
2021/08/23 02:20:08;;;;;;;394.33;368.58;;;19.50;99.90;;;;;;5079261;28;20220;-79
2021/08/23 02:22:34;;;;;;;377.02;353.27;;;19.50;99.90;;;;;;5073556;28;20239;-78
2021/08/23 02:25:01;;;;;;;408.08;381.27;;;19.50;99.90;;;;;;5073998;28;20204;-79
2021/08/23 02:38:14;;;;;;;335.67;315.08;;;19.40;99.90;;;;;;5069147;28;20266;-78
2021/08/23 02:40:41;;;;;;;378.95;355.15;;;19.30;99.90;;;;;;5078074;28;20236;-78
2021/08/23 02:43:08;;;;;;;370.13;347.00;;;19.30;99.90;;;;;;5070273;28;20204;-78
2021/08/23 02:51:13;;;;;;;384.83;360.30;;;19.30;99.90;;;;;;5074792;28;20235;-79
2021/08/23 02:53:41;;;;;;;399.55;373.70;;;19.30;99.90;;;;;;5083561;28;20210;-79
2021/08/23 02:56:08;;;;;;;359.65;337.45;;;19.30;99.90;;;;;;5079241;28;20249;-78
2021/08/23 02:58:35;;;;;;;426.95;398.65;;;19.30;99.90;;;;;;5078668;28;20212;-79
2021/08/23 03:06:41;;;;;;;348.50;327.10;;;19.30;99.90;;;;;;5073352;28;20216;-79
2021/08/23 03:09:09;;;;;;;335.02;314.83;;;19.20;99.90;;;;;;5073823;28;20234;-78
2021/08/23 03:11:35;;;;;;;348.80;327.05;;;19.20;99.90;;;;;;5074219;28;20203;-79
2021/08/23 03:14:03;;;;;;;320.45;301.40;;;19.20;99.90;;;;;;5073027;28;20239;-78
2021/08/23 03:22:08;;;;;;;362.33;339.48;;;19.30;99.90;;;;;;5071038;28;20766;-79
2021/08/23 03:27:16;;;;;;;379.35;355.38;;;19.30;99.90;;;;;;5074681;28;20211;-78
2021/08/23 03:29:45;;;;;;;373.95;350.20;;;19.30;99.90;;;;;;5072650;28;20277;-79
2021/08/23 03:32:12;;;;;;;373.40;349.85;;;19.40;99.90;;;;;;5072464;28;20265;-77
2021/08/23 03:37:36;;;;;;;384.88;360.38;;;19.30;99.90;;;;;;5070510;28;20782;-78
2021/08/23 03:40:04;;;;;;;401.00;375.10;;;19.30;99.90;;;;;;5070626;28;20259;-78
2021/08/23 03:42:30;;;;;;;376.70;353.10;;;19.30;99.90;;;;;;5071429;28;20226;-78
2021/08/23 03:44:57;;;;;;;366.95;343.95;;;19.30;99.90;;;;;;5078954;28;20206;-78
2021/08/23 03:55:37;;;;;;;361.27;338.60;;;19.40;99.90;;;;;;5070681;28;20229;-78
2021/08/23 04:06:11;;;;;;;348.77;327.45;;;19.40;99.90;;;;;;5077377;28;20214;-79
2021/08/23 04:08:55;;;;;;;351.27;329.52;;;19.40;99.90;;;;;;5076518;28;20249;-79
2021/08/23 04:11:29;;;;;;;372.05;348.85;;;19.40;99.90;;;;;;5072137;28;20208;-78
2021/08/23 04:24:42;;;;;;;380.27;356.15;;;19.60;99.90;;;;;;5067217;28;20241;-77
2021/08/23 04:27:10;;;;;;;382.27;357.98;;;19.50;99.90;;;;;;5070953;28;20264;-77
2021/08/23 04:29:37;;;;;;;374.13;350.30;;;19.50;99.90;;;;;;5066969;28;20229;-77
2021/08/23 04:32:04;;;;;;;357.35;335.20;;;19.50;99.90;;;;;;5067696;28;20208;-77
2021/08/23 04:34:31;;;;;;;368.40;345.52;;;19.50;99.90;;;;;;5067375;28;20196;-77
2021/08/23 04:37:03;;;;;;;260.42;245.50;;;19.50;99.90;;;;;;5066358;28;20456;-77
2021/08/23 04:39:30;;;;;;;376.55;352.33;;;19.50;99.90;;;;;;5066921;28;20621;-77
2021/08/23 04:41:59;;;;;;;371.42;347.95;;;19.50;99.90;;;;;;5070898;28;20299;-77
2021/08/23 04:44:28;;;;;;;407.05;380.38;;;19.50;99.90;;;;;;5074914;28;20201;-77
2021/08/23 04:46:55;;;;;;;416.50;389.23;;;19.50;99.90;;;;;;5067473;28;20228;-77
2021/08/23 04:49:22;;;;;;;408.42;381.98;;;19.50;99.90;;;;;;5066996;28;20255;-77
2021/08/23 04:51:49;;;;;;;382.27;358.17;;;19.60;99.90;;;;;;5077743;28;20206;-77
2021/08/23 04:54:16;;;;;;;400.13;373.67;;;19.60;99.90;;;;;;5067718;28;20204;-78
2021/08/23 04:56:43;;;;;;;387.25;362.48;;;19.60;99.90;;;;;;5069470;28;20199;-78
2021/08/23 04:59:11;;;;;;;373.27;349.23;;;19.60;99.90;;;;;;5074036;28;20203;-78
2021/08/23 05:01:40;;;;;;;372.08;348.52;;;19.60;99.90;;;;;;5068503;28;20208;-78
2021/08/23 05:04:07;;;;;;;406.38;379.42;;;19.50;99.90;;;;;;5067444;28;20264;-78
2021/08/23 05:06:34;;;;;;;388.00;362.60;;;19.50;99.90;;;;;;5073813;28;20196;-78
2021/08/23 05:09:01;;;;;;;417.15;388.90;;;19.60;99.90;;;;;;5066644;28;20222;-78
2021/08/23 05:11:30;;;;;;;430.83;401.40;;;19.60;99.90;;;;;;5068444;28;20257;-78
2021/08/23 05:13:59;;;;;;;398.08;371.65;;;19.60;99.90;;;;;;5067657;28;20613;-78
2021/08/23 05:16:28;;;;;;;397.50;371.15;;;19.70;99.90;;;;;;5075675;28;20205;-78
2021/08/23 05:18:56;;;;;;;379.50;353.42;;;19.60;99.90;;;;;;5070438;28;20205;-78
2021/08/23 05:21:23;;;;;;;390.27;363.92;;;19.60;99.90;;;;;;5071652;28;20227;-78
2021/08/23 05:23:50;;;;;;;441.27;410.35;;;19.60;99.90;;;;;;5068348;28;20204;-78
2021/08/23 05:26:17;;;;;;;415.67;386.50;;;19.70;99.90;;;;;;5067683;28;20231;-78
2021/08/23 05:28:44;;;;;;;428.83;398.70;;;19.70;99.90;;;;;;5067223;28;20231;-77
2021/08/23 05:31:11;;;;;;;406.67;377.35;;;19.70;99.90;;;;;;5068247;28;20229;-78
2021/08/23 05:33:39;;;;;;;432.60;402.00;;;19.70;99.90;;;;;;5068927;28;20222;-78
2021/08/23 05:36:06;;;;;;;423.90;393.73;;;19.70;99.90;;;;;;5073140;28;20222;-78
2021/08/23 05:38:33;;;;;;;413.20;384.02;;;19.70;99.90;;;;;;5075655;28;20729;-78
2021/08/23 05:41:00;;;;;;;416.88;386.88;;;19.70;99.90;;;;;;5067808;28;20196;-78
2021/08/23 05:43:27;;;;;;;439.38;407.38;;;19.60;99.90;;;;;;5068300;28;20270;-78
2021/08/23 05:45:56;;;;;;;419.88;390.23;;;19.50;99.90;;;;;;5068221;28;20667;-78
2021/08/23 05:48:22;;;;;;;425.60;395.25;;;19.50;99.90;;;;;;5068494;28;20227;-78
2021/08/23 05:50:51;;;;;;;408.27;379.38;;;19.60;99.90;;;;;;5068919;28;20245;-78
2021/08/23 05:55:59;;;;;;;407.65;378.75;;;19.60;99.90;;;;;;5072796;28;20211;-78
2021/08/23 05:58:26;;;;;;;405.30;376.80;;;19.70;99.90;;;;;;5068846;28;20208;-78
2021/08/23 06:01:00;;;;;;;407.35;378.67;;;19.80;99.90;;;;;;5073476;28;20223;-79
2021/08/23 06:03:28;;;;;;;398.67;370.75;;;19.80;99.90;;;;;;5068329;28;20385;-78
2021/08/23 06:05:57;;;;;;;392.33;365.17;;;19.90;99.90;;;;;;5068127;28;20200;-78
2021/08/23 06:08:24;;;;;;;380.20;354.33;;;19.90;99.90;;;;;;5072273;28;20234;-79
2021/08/23 06:10:51;;;;;;;396.75;369.05;;;19.90;99.90;;;;;;5069470;28;20214;-78
2021/08/23 06:13:18;;;;;;;381.65;355.25;;;19.80;99.90;;;;;;5073931;28;20553;-78
2021/08/23 06:15:45;;;;;;;412.48;383.20;;;19.90;99.90;;;;;;5072604;28;20266;-79
2021/08/23 06:18:11;;;;;;;389.33;361.85;;;19.90;99.90;;;;;;5067330;28;20199;-78
2021/08/23 06:20:38;;;;;;;417.35;387.63;;;19.90;99.90;;;;;;5071704;28;20202;-78
2021/08/23 06:23:07;;;;;;;440.00;408.13;;;19.90;99.90;;;;;;5076989;28;20275;-77
2021/08/23 06:25:34;;;;;;;451.45;419.00;;;19.90;99.90;;;;;;5069693;28;20203;-77
2021/08/23 06:28:01;;;;;;;456.67;423.35;;;19.90;99.90;;;;;;5073863;28;20200;-77
2021/08/23 06:30:28;;;;;;;458.13;423.95;;;19.90;99.90;;;;;;5069801;28;20258;-77
2021/08/23 06:32:55;;;;;;;421.83;390.63;;;19.80;99.90;;;;;;5069761;28;20229;-77
2021/08/23 06:35:23;;;;;;;426.30;394.77;;;19.70;99.90;;;;;;5070408;28;20245;-77
2021/08/23 06:37:51;;;;;;;426.55;394.95;;;19.70;99.90;;;;;;5079574;28;20204;-77
2021/08/23 06:40:20;;;;;;;416.05;385.48;;;19.80;99.90;;;;;;5076684;28;20203;-77
2021/08/23 06:42:47;;;;;;;446.10;412.63;;;19.80;99.90;;;;;;5071266;28;20236;-77
2021/08/23 06:45:14;;;;;;;394.58;365.52;;;19.80;99.90;;;;;;5069342;28;20656;-77
2021/08/23 06:47:41;;;;;;;407.83;377.73;;;19.80;99.90;;;;;;5070276;28;20212;-77
2021/08/23 06:50:09;;;;;;;394.90;366.70;;;19.70;99.90;;;;;;5073783;28;20253;-77
2021/08/23 06:52:37;;;;;;;395.27;366.67;;;19.70;99.90;;;;;;5073395;28;20203;-77
2021/08/23 06:55:05;;;;;;;404.02;375.17;;;19.70;99.90;;;;;;5069792;28;20262;-77
2021/08/23 06:57:33;;;;;;;405.25;377.05;;;19.70;99.90;;;;;;5075345;28;20200;-77
2021/08/23 07:00:00;;;;;;;386.60;359.40;;;19.70;99.90;;;;;;5077399;28;20210;-77
2021/08/23 07:02:27;;;;;;;384.27;357.35;;;19.60;99.90;;;;;;5072357;28;20234;-77
2021/08/23 07:04:54;;;;;;;390.95;363.60;;;19.60;99.90;;;;;;5069436;28;20212;-77
2021/08/23 07:07:21;;;;;;;403.50;375.42;;;19.60;99.90;;;;;;5069348;28;20200;-77
2021/08/23 07:09:48;;;;;;;402.55;373.38;;;19.50;99.90;;;;;;5074264;28;20813;-77
2021/08/23 07:12:15;;;;;;;367.02;342.02;;;19.50;99.90;;;;;;5071029;28;20199;-77
2021/08/23 07:14:43;;;;;;;380.88;355.00;;;19.40;99.90;;;;;;5074858;28;20260;-77
2021/08/23 07:17:10;;;;;;;384.48;357.70;;;19.50;99.90;;;;;;5077835;28;20207;-77
2021/08/23 07:19:37;;;;;;;407.75;379.38;;;19.50;99.90;;;;;;5078322;28;20201;-77
2021/08/23 07:22:04;;;;;;;383.73;357.38;;;19.60;99.90;;;;;;5071586;28;20250;-78
2021/08/23 07:24:31;;;;;;;370.13;345.27;;;19.70;99.90;;;;;;5069285;28;20232;-77
2021/08/23 07:26:58;;;;;;;403.85;376.42;;;19.70;99.90;;;;;;5069493;28;20204;-78
2021/08/23 07:29:26;;;;;;;381.08;355.88;;;19.70;99.90;;;;;;5068353;28;20231;-77
2021/08/23 07:31:54;;;;;;;427.85;397.30;;;19.70;99.90;;;;;;5072713;28;20728;-77
2021/08/23 07:34:22;;;;;;;419.35;390.58;;;19.60;99.90;;;;;;5075481;28;20204;-77
2021/08/23 07:36:51;;;;;;;396.15;369.52;;;19.60;99.90;;;;;;5071911;28;20261;-77
2021/08/23 07:39:18;;;;;;;441.45;411.20;;;19.50;99.90;;;;;;5069958;28;20207;-77
2021/08/23 07:41:45;;;;;;;429.02;399.42;;;19.60;99.90;;;;;;5070267;28;20206;-77
2021/08/23 07:44:12;;;;;;;438.02;407.85;;;19.60;99.90;;;;;;5073402;28;20223;-77
2021/08/23 07:46:39;;;;;;;443.90;413.15;;;19.50;99.90;;;;;;5073965;28;20211;-77
2021/08/23 07:49:08;;;;;;;418.70;389.90;;;19.50;99.90;;;;;;5073153;28;20639;-77
2021/08/23 07:51:36;;;;;;;451.88;420.40;;;19.50;99.90;;;;;;5072784;28;20244;-77
2021/08/23 07:54:03;;;;;;;415.90;387.13;;;19.50;99.90;;;;;;5068217;28;20205;-78
2021/08/23 07:56:30;;;;;;;430.73;401.15;;;19.50;99.90;;;;;;5068083;28;20221;-77
2021/08/23 07:58:57;;;;;;;422.50;393.30;;;19.60;99.90;;;;;;5068626;28;20209;-77
2021/08/23 08:01:25;;;;;;;405.73;378.40;;;19.60;99.90;;;;;;5074347;28;20241;-78
2021/08/23 08:03:52;;;;;;;425.70;396.77;;;19.60;99.90;;;;;;5073085;28;20236;-77
2021/08/23 08:06:20;;;;;;;419.45;391.15;;;19.50;99.90;;;;;;5067533;28;20223;-77
2021/08/23 08:08:47;;;;;;;404.45;377.83;;;19.60;99.90;;;;;;5068155;28;20215;-75
2021/08/23 08:11:14;;;;;;;407.58;380.58;;;19.70;99.90;;;;;;5067450;28;20203;-75
2021/08/23 08:13:42;;;;;;;413.48;385.95;;;19.70;99.90;;;;;;5066859;28;20262;-75
2021/08/23 08:16:09;;;;;;;428.08;398.95;;;19.70;99.90;;;;;;5069305;28;20271;-75
2021/08/23 08:18:36;;;;;;;433.58;403.58;;;19.80;99.90;;;;;;5071426;28;20208;-75
2021/08/23 08:21:03;;;;;;;429.05;399.98;;;19.80;99.90;;;;;;5068225;28;20208;-75
2021/08/23 08:23:31;;;;;;;398.58;372.02;;;19.80;99.90;;;;;;5067030;28;20201;-75
2021/08/23 08:25:58;;;;;;;390.45;364.40;;;19.90;99.90;;;;;;5071299;28;20204;-75
2021/08/23 08:28:26;;;;;;;388.85;362.77;;;19.90;99.90;;;;;;5078911;28;20205;-75
2021/08/23 08:30:53;;;;;;;402.83;375.52;;;19.90;99.90;;;;;;5069224;28;20678;-78
2021/08/23 08:33:20;;;;;;;396.10;369.70;;;19.80;99.90;;;;;;5072834;28;20230;-77
2021/08/23 08:35:47;;;;;;;400.60;373.88;;;19.80;99.90;;;;;;5077929;28;20221;-77
2021/08/23 08:38:14;;;;;;;389.10;362.92;;;19.90;99.90;;;;;;5066895;28;20200;-78
2021/08/23 08:40:43;;;;;;;360.08;336.95;;;19.90;99.90;;;;;;5071142;28;20208;-77
2021/08/23 08:43:10;;;;;;;371.20;347.05;;;20.10;99.90;;;;;;5070585;28;20219;-77
2021/08/23 08:45:38;;;;;;;393.58;367.10;;;20.20;99.90;;;;;;5071260;28;20268;-77
2021/08/23 08:48:07;;;;;;;360.02;336.50;;;20.10;99.90;;;;;;5068959;28;20202;-77
2021/08/23 08:50:34;;;;;;;410.95;383.42;;;20.10;99.90;;;;;;5066644;28;20223;-77
2021/08/23 08:53:05;;;;;;;380.45;355.30;;;20.10;99.90;;;;;;5073874;28;20725;-77
2021/08/23 08:55:35;;;;;;;403.40;376.33;;;20.10;99.90;;;;;;5076253;28;20199;-77
2021/08/23 08:58:06;;;;;;;369.98;345.65;;;20.20;99.90;;;;;;5066763;28;20202;-77
2021/08/23 09:00:33;;;;;;;410.48;382.50;;;20.20;99.90;;;;;;5071837;28;20198;-77
2021/08/23 09:03:00;;;;;;;392.75;366.45;;;20.30;99.90;;;;;;5065767;28;20228;-77
2021/08/23 09:05:37;;;;;;;374.15;349.63;;;20.30;99.90;;;;;;5066316;28;20228;-77
2021/08/23 09:08:05;;;;;;;411.52;383.33;;;20.30;99.90;;;;;;5072338;28;20206;-77
2021/08/23 09:10:34;;;;;;;398.85;372.25;;;20.40;99.90;;;;;;5072589;28;20225;-77
2021/08/23 09:13:05;;;;;;;398.58;372.10;;;20.50;99.90;;;;;;5066556;28;20646;-77
2021/08/23 09:15:33;;;;;;;396.15;369.70;;;20.50;99.90;;;;;;5068264;28;20221;-77
2021/08/23 09:18:08;;;;;;;382.42;356.95;;;20.50;99.90;;;;;;5075782;28;20200;-77
2021/08/23 09:20:36;;;;;;;401.75;374.65;;;20.40;99.90;;;;;;5072082;28;20236;-77
2021/08/23 09:23:11;;;;;;;416.23;387.48;;;20.40;99.90;;;;;;5069249;28;20211;-77
2021/08/23 09:25:39;;;;;;;380.60;355.33;;;20.30;99.90;;;;;;5070273;28;20207;-77
2021/08/23 09:28:09;;;;;;;384.85;358.83;;;20.30;99.90;;;;;;5068407;28;20264;-77
2021/08/23 09:30:37;;;;;;;398.25;371.33;;;20.60;99.90;;;;;;5068663;28;20260;-77
2021/08/23 09:33:06;;;;;;;372.58;348.08;;;21.10;99.90;;;;;;5066133;28;20253;-77
2021/08/23 09:35:43;;;;;;;370.50;345.63;;;21.40;99.90;;;;;;5066469;28;20206;-78
2021/08/23 09:38:11;;;;;;;371.15;346.42;;;21.50;99.90;;;;;;5071720;28;20291;-77
2021/08/23 09:40:38;;;;;;;367.38;343.20;;;21.50;99.90;;;;;;5068879;28;20206;-77
2021/08/23 09:43:11;;;;;;;381.05;355.40;;;21.40;99.90;;;;;;5072688;28;20205;-78
2021/08/23 09:45:44;;;;;;;360.52;336.90;;;21.20;99.90;;;;;;5068297;28;20237;-77
2021/08/23 09:48:11;;;;;;;372.48;347.60;;;21.10;99.90;;;;;;5066321;28;20208;-77
2021/08/23 09:50:40;;;;;;;375.02;349.65;;;21.10;99.90;;;;;;5067415;28;20248;-77
2021/08/23 09:53:12;;;;;;;391.85;365.17;;;20.90;99.90;;;;;;5065687;28;20201;-77
2021/08/23 09:55:44;;;;;;;395.52;368.95;;;20.90;99.90;;;;;;5072981;28;20616;-77
2021/08/23 09:58:13;;;;;;;403.98;376.20;;;20.70;99.90;;;;;;5069415;28;20237;-77
2021/08/23 10:00:41;;;;;;;414.58;386.25;;;20.80;99.90;;;;;;5068811;28;20245;-77
2021/08/23 10:05:07;;;;;;;334.30;312.77;;;21.10;99.90;;;;;;5108644;27;20618;-76
2021/08/23 10:07:34;;;;;;;358.40;335.02;;;21.20;99.90;;;;;;5105542;28;20196;-76
2021/08/23 10:10:02;;;;;;;338.05;316.65;;;21.30;99.90;;;;;;5106138;28;20201;-76
2021/08/23 10:12:30;;;;;;;349.42;326.83;;;21.30;99.90;;;;;;5103654;28;20209;-77
2021/08/23 10:15:05;;;;;;;337.60;315.80;;;21.30;99.90;;;;;;5103375;28;20268;-76
2021/08/23 10:17:36;;;;;;;342.52;320.65;;;21.30;99.90;;;;;;5103406;28;20272;-76
2021/08/23 10:20:03;;;;;;;362.83;338.73;;;21.30;99.90;;;;;;5104215;28;20265;-76
2021/08/23 10:22:33;;;;;;;355.20;332.23;;;21.20;99.90;;;;;;5104677;28;20229;-76
2021/08/23 10:25:01;;;;;;;378.40;353.52;;;21.20;99.90;;;;;;5113402;28;20228;-76
2021/08/23 10:27:32;;;;;;;361.15;337.48;;;21.10;99.90;;;;;;5103989;28;20238;-76
2021/08/23 10:30:00;;;;;;;365.42;341.15;;;21.10;99.90;;;;;;5109985;28;20207;-76
2021/08/23 10:32:35;;;;;;;365.95;341.75;;;21.20;99.90;;;;;;5109241;28;20556;-76
2021/08/23 10:35:16;;;;;;;340.45;318.98;;;21.20;99.90;;;;;;5108638;28;20201;-76
2021/08/23 10:37:45;;;;;;;371.58;346.88;;;21.20;99.90;;;;;;5103028;28;20301;-76
2021/08/23 10:40:14;;;;;;;388.65;362.65;;;21.20;99.90;;;;;;5110781;28;20207;-77
2021/08/23 10:42:46;;;;;;;364.33;340.30;;;21.20;99.90;;;;;;5105479;28;20301;-76
2021/08/23 10:45:15;;;;;;;423.65;394.77;;;21.40;99.90;;;;;;5109576;28;20202;-76
2021/08/23 10:50:25;;;;;;;452.35;420.75;;;21.50;99.90;;;;;;5103700;28;20210;-76
2021/08/23 10:58:17;;;;;;;418.77;390.15;;;21.60;99.90;;;;;;5107603;28;20209;-76
2021/08/23 11:00:44;;;;;;;466.35;433.65;;;21.60;99.90;;;;;;5110313;28;20203;-76
2021/08/23 11:03:11;;;;;;;431.35;401.77;;;21.50;99.90;;;;;;5101384;28;20267;-77
2021/08/23 11:05:39;;;;;;;428.38;399.05;;;21.50;99.90;;;;;;5107257;28;20213;-77
2021/08/23 11:08:12;;;;;;;427.60;398.63;;;21.40;99.90;;;;;;5106370;28;20630;-76
2021/08/23 11:10:42;;;;;;;428.35;399.20;;;21.60;99.90;;;;;;5107455;28;20550;-76
2021/08/23 11:13:14;;;;;;;418.60;390.40;;;21.70;99.90;;;;;;5103119;28;20201;-76
2021/08/23 11:15:42;;;;;;;424.38;395.20;;;21.80;99.90;;;;;;5090777;28;20662;-76
2021/08/23 11:18:11;;;;;;;451.33;419.98;;;21.80;99.90;;;;;;5089027;28;20200;-76
2021/08/23 11:20:40;;;;;;;455.23;423.08;;;21.80;99.90;;;;;;5094350;28;20655;-76
2021/08/23 11:23:17;;;;;;;445.10;414.27;;;21.80;99.90;;;;;;5094049;28;20790;-76
2021/08/23 11:25:47;;;;;;;439.05;408.58;;;21.80;99.90;;;;;;5093598;28;20206;-76
2021/08/23 11:28:25;;;;;;;412.13;384.00;;;21.90;99.90;;;;;;5091254;28;20205;-75
2021/08/23 11:30:55;;;;;;;444.98;413.73;;;21.90;99.90;;;;;;5091300;28;20236;-76
2021/08/23 11:33:26;;;;;;;405.33;378.10;;;22.00;99.90;;;;;;5092702;28;20203;-76
2021/08/23 11:35:54;;;;;;;351.73;329.10;;;22.10;99.90;;;;;;5089919;28;20202;-76
2021/08/23 11:38:28;;;;;;;388.25;362.70;;;22.20;99.90;;;;;;5095113;28;20228;-76
2021/08/23 11:40:55;;;;;;;386.50;360.75;;;22.20;99.90;;;;;;5092556;28;20200;-76
2021/08/23 11:43:26;;;;;;;462.58;429.70;;;22.20;99.90;;;;;;5093516;28;20240;-76
2021/08/23 11:45:53;;;;;;;424.85;395.70;;;22.40;99.90;;;;;;5094022;28;20214;-76
2021/08/23 11:48:20;;;;;;;477.10;442.45;;;22.50;99.90;;;;;;5087803;28;20210;-76
2021/08/23 11:50:47;;;;;;;444.08;413.00;;;22.60;99.90;;;;;;5090515;28;20527;-74
2021/08/23 11:53:15;;;;;;;432.98;403.00;;;22.70;99.90;;;;;;5093675;28;20202;-74
2021/08/23 11:55:45;;;;;;;424.85;395.27;;;22.70;99.90;;;;;;5087206;28;20230;-77
2021/08/23 11:58:15;;;;;;;442.20;411.25;;;22.60;99.90;;;;;;5087498;28;20199;-75
2021/08/23 12:00:44;;;;;;;424.70;395.02;;;22.60;99.90;;;;;;5092850;28;20216;-75
2021/08/23 12:03:14;;;;;;;454.30;422.33;;;22.60;99.90;;;;;;5092390;28;20238;-75
2021/08/23 12:05:42;;;;;;;401.80;374.00;;;22.70;99.90;;;;;;5089711;28;20198;-75
2021/08/23 12:08:22;;;;;;;397.38;370.45;;;22.70;99.90;;;;;;5090038;28;20202;-75
2021/08/23 12:10:53;;;;;;;415.40;387.05;;;22.80;99.90;;;;;;5091953;28;20199;-75
2021/08/23 12:13:23;;;;;;;383.63;358.15;;;22.70;99.90;;;;;;5091486;28;20286;-76
2021/08/23 12:15:52;;;;;;;389.58;363.30;;;22.60;99.90;;;;;;5095538;28;20216;-76
2021/08/23 12:18:20;;;;;;;422.65;393.77;;;22.60;99.90;;;;;;5087166;28;20202;-76
2021/08/23 12:21:19;;;;;;;430.05;400.70;;;22.60;99.90;;;;;;5093867;28;20204;-76
2021/08/23 12:23:55;;;;;;;435.00;404.33;;;22.50;99.90;;;;;;5091100;28;20285;-76
2021/08/23 12:26:29;;;;;;;441.70;411.05;;;22.50;99.90;;;;;;5087430;28;20198;-76
2021/08/23 12:28:59;;;;;;;439.63;409.20;;;22.40;99.90;;;;;;5093237;28;20292;-76
2021/08/23 12:31:26;;;;;;;428.00;398.65;;;22.30;99.90;;;;;;5095859;28;20343;-76
2021/08/23 12:33:53;;;;;;;454.13;422.77;;;22.30;99.90;;;;;;5091751;28;20211;-76
2021/08/23 12:36:21;;;;;;;461.48;429.23;;;22.40;99.90;;;;;;5102698;28;20208;-77
2021/08/23 12:38:48;;;;;;;438.08;407.83;;;22.40;99.90;;;;;;5085553;28;20204;-76
2021/08/23 12:41:16;;;;;;;436.17;405.92;;;22.40;99.90;;;;;;5098638;28;20214;-76
2021/08/23 12:43:46;;;;;;;369.13;344.85;;;22.30;99.90;;;;;;5089438;28;20610;-76
2021/08/23 12:46:16;;;;;;;387.75;362.23;;;22.30;99.90;;;;;;5088539;28;20206;-76
2021/08/23 12:48:43;;;;;;;419.10;390.55;;;22.30;99.90;;;;;;5089923;28;20247;-76
2021/08/23 12:51:10;;;;;;;373.30;348.48;;;22.30;99.90;;;;;;5097734;28;20611;-76
2021/08/23 12:53:37;;;;;;;388.92;362.70;;;22.40;99.90;;;;;;5090490;28;20214;-76
2021/08/23 12:56:07;;;;;;;384.17;358.75;;;22.40;99.90;;;;;;5089668;28;20207;-76
2021/08/23 12:58:36;;;;;;;396.95;370.23;;;22.40;99.90;;;;;;5092428;28;20199;-76
2021/08/23 13:01:04;;;;;;;385.45;358.75;;;22.40;99.90;;;;;;5088198;28;20193;-76
2021/08/23 13:03:31;;;;;;;403.70;376.70;;;22.40;99.90;;;;;;5097053;28;20263;-76
2021/08/23 13:05:58;;;;;;;411.50;383.85;;;22.50;99.90;;;;;;5090736;28;20569;-76
2021/08/23 13:08:25;;;;;;;371.95;347.67;;;22.50;99.90;;;;;;5087166;28;20201;-76
2021/08/23 13:10:52;;;;;;;397.42;370.50;;;22.60;99.90;;;;;;5089767;28;20210;-76
2021/08/23 13:13:20;;;;;;;409.83;381.80;;;22.80;99.90;;;;;;5093400;28;20209;-76
2021/08/23 13:15:47;;;;;;;416.95;388.17;;;22.90;99.90;;;;;;5088562;28;20257;-76
2021/08/23 13:18:16;;;;;;;357.40;333.67;;;22.90;99.90;;;;;;5088580;28;20263;-76
2021/08/23 13:20:43;;;;;;;402.35;375.35;;;22.90;99.90;;;;;;5086466;28;20258;-76
2021/08/23 13:23:11;;;;;;;426.55;397.10;;;22.80;99.90;;;;;;5089987;28;20240;-76
2021/08/23 13:25:39;;;;;;;427.55;398.00;;;22.80;99.90;;;;;;5089920;28;20696;-76
2021/08/23 13:28:07;;;;;;;387.67;361.85;;;22.90;99.90;;;;;;5085147;28;20207;-76
2021/08/23 13:30:34;;;;;;;392.00;365.65;;;22.90;99.90;;;;;;5096230;28;20202;-76
2021/08/23 13:33:04;;;;;;;396.73;370.10;;;22.80;99.90;;;;;;5092638;28;20202;-76
2021/08/23 13:35:33;;;;;;;404.20;376.02;;;22.80;99.90;;;;;;5086095;28;20543;-76
2021/08/23 13:38:02;;;;;;;424.92;395.23;;;22.80;99.90;;;;;;5085837;28;20207;-76
2021/08/23 13:40:30;;;;;;;456.23;423.85;;;22.80;99.90;;;;;;5098986;28;20254;-76
2021/08/23 13:42:57;;;;;;;442.85;411.95;;;22.80;99.90;;;;;;5086215;28;20207;-76
2021/08/23 13:45:24;;;;;;;440.02;409.45;;;22.80;99.90;;;;;;5090415;28;20256;-76
2021/08/23 13:47:51;;;;;;;444.30;412.90;;;22.80;99.90;;;;;;5085527;28;20254;-76
2021/08/23 13:50:18;;;;;;;432.85;402.05;;;22.80;99.90;;;;;;5085305;28;20201;-76
2021/08/23 13:52:46;;;;;;;410.65;382.88;;;22.80;99.90;;;;;;5092523;28;20231;-76
2021/08/23 13:55:14;;;;;;;405.58;378.05;;;22.80;99.90;;;;;;5091006;28;20206;-76
2021/08/23 13:57:41;;;;;;;385.75;359.85;;;22.80;99.90;;;;;;5092008;28;20254;-76
2021/08/23 14:00:09;;;;;;;419.88;391.13;;;22.90;99.90;;;;;;5085282;28;20198;-76
2021/08/23 14:02:36;;;;;;;415.05;386.75;;;22.90;99.90;;;;;;5086453;28;20207;-76
2021/08/23 14:05:04;;;;;;;396.63;369.80;;;22.90;99.90;;;;;;5087631;28;20280;-76
2021/08/23 14:07:31;;;;;;;430.27;400.40;;;22.90;99.90;;;;;;5087577;28;20202;-76
2021/08/23 14:09:59;;;;;;;421.02;392.13;;;22.90;99.90;;;;;;5091838;28;20212;-76
2021/08/23 14:12:26;;;;;;;425.42;396.30;;;22.90;99.90;;;;;;5090065;28;20202;-76
2021/08/23 14:14:53;;;;;;;377.77;352.90;;;23.00;99.90;;;;;;5084843;28;20206;-76
2021/08/23 14:17:20;;;;;;;378.40;353.15;;;23.10;99.90;;;;;;5089779;28;20199;-76